Kezdőlap
METAR-TAF:

METAR-TAF

Repülőterek :

Iringa, Tanzánia

földrajzi szélesség: 07-40S, földrajzi hosszúság: 035-45E, magasság: 1426 m

Jelenlegi meteorológiai megfigyelések

A jelentés 4 órával és 23 perccel ezelõtt készült, 20:00 UTC
Szélcsend
Hőmérséklet 19°C
Páratartalom 88%
Légköri nyomás 1019 hPa
Látótávolság 10 km, vagy több
Szórványos felhőzet 2300 lábon
Szakadozott felhőzet 8000 lábon

METAR: HTIR 272000Z 00000KT 9999 SCT023 BKN080 19/17 Q1019

Idő: 03:23 (00:23 UTC)


TAF: hiányzik

Meteorológiai megfigyelések és előrejelzések több, mint 4000 repülőtéren (METAR és TAF jelentéseket).

A térképen piros és sárga pontok jelzik az elérhető meteorológiai állomásokat.

Mozgassa az egeret a pont fölött, hogy megjelenjen az állomás neve.

Azután kattintson az időjárási megfigyelések és előrejelzések megtekintéséhez.

A térkép megváltoztatása: kattintson a fekete keresztel jelölt zöld gombra ráközelítéshez, a vonallal jelölt zöld gombra távolításhoz, vagy a zöld nyilakra a szomszédos térképek eléréséhez.


METAR-TAF: